Time;durP1;ratioP1;P1;durP2;ratioP2;P2;SDS_P1;SDS_P2;PMS_P1;PMS_P2;Temp;Humidity;BMP_temperature;BMP_pressure;BME280_temperature;BME280_humidity;BME280_pressure;Samples;Min_cycle;Max_cycle;Signal;HPM_P1;HPM_P2
2022/03/09 00:00:07;;;;;;;65.03;33.53;;;;;;;;;;5015744;28;20018;-52
2022/03/09 00:02:33;;;;;;;55.85;29.70;;;;;;;;;;5016304;28;20033;-55
2022/03/09 00:05:00;;;;;;;60.65;33.20;;;;;;;;;;5016252;28;20105;-51
2022/03/09 00:07:27;;;;;;;61.78;32.53;;;;;;;;;;5015499;28;20064;-53
2022/03/09 00:09:53;;;;;;;63.67;34.42;;;;;;;;;;5015917;28;20076;-54
2022/03/09 00:12:20;;;;;;;70.30;37.30;;;;;;;;;;5017488;28;20061;-52
2022/03/09 00:14:46;;;;;;;61.70;35.17;;;;;;;;;;5016727;28;20038;-53
2022/03/09 00:17:13;;;;;;;65.10;34.55;;;;;;;;;;5017038;28;20021;-50
2022/03/09 00:19:39;;;;;;;65.13;33.55;;;;;;;;;;5016178;28;20075;-52
2022/03/09 00:22:05;;;;;;;63.65;32.35;;;;;;;;;;5016252;28;20024;-50
2022/03/09 00:24:32;;;;;;;64.70;32.95;;;;;;;;;;5015862;28;20032;-51
2022/03/09 00:26:59;;;;;;;58.55;31.17;;;;;;;;;;5015547;28;20072;-49
2022/03/09 00:29:26;;;;;;;56.53;31.85;;;;;;;;;;5016034;28;20032;-47
2022/03/09 00:31:52;;;;;;;59.45;32.30;;;;;;;;;;5015712;28;20018;-50
2022/03/09 00:34:18;;;;;;;54.88;29.90;;;;;;;;;;5014262;28;20022;-48
2022/03/09 00:36:44;;;;;;;56.15;31.48;;;;;;;;;;5015688;28;20521;-48
2022/03/09 00:39:10;;;;;;;55.28;30.50;;;;;;;;;;5015145;28;20506;-54
2022/03/09 00:41:36;;;;;;;56.25;29.70;;;;;;;;;;5014599;28;20054;-52
2022/03/09 00:44:03;;;;;;;56.53;31.73;;;;;;;;;;5015637;28;20030;-49
2022/03/09 00:46:29;;;;;;;68.20;35.95;;;;;;;;;;5015204;28;20026;-55
2022/03/09 00:48:56;;;;;;;89.25;41.38;;;;;;;;;;5014938;28;20169;-50
2022/03/09 00:51:23;;;;;;;59.80;33.75;;;;;;;;;;5015291;28;20029;-53
2022/03/09 00:53:49;;;;;;;55.85;31.00;;;;;;;;;;5015078;28;20029;-56
2022/03/09 00:56:15;;;;;;;55.63;30.48;;;;;;;;;;5014840;28;20022;-56
2022/03/09 00:58:42;;;;;;;60.47;32.13;;;;;;;;;;5015349;28;20029;-56
2022/03/09 01:01:09;;;;;;;62.17;32.72;;;;;;;;;;5014781;28;20022;-51
2022/03/09 01:03:35;;;;;;;55.63;32.22;;;;;;;;;;5014730;28;20030;-54
2022/03/09 01:06:01;;;;;;;54.97;31.02;;;;;;;;;;5014926;28;20026;-54
2022/03/09 01:08:28;;;;;;;57.13;30.48;;;;;;;;;;5014268;28;20033;-53
2022/03/09 01:10:54;;;;;;;68.15;33.85;;;;;;;;;;5014916;28;20470;-50
2022/03/09 01:13:21;;;;;;;51.30;28.95;;;;;;;;;;5015132;28;20437;-51
2022/03/09 01:15:48;;;;;;;50.88;27.40;;;;;;;;;;5014474;28;20109;-48
2022/03/09 01:18:14;;;;;;;55.10;29.10;;;;;;;;;;5014837;28;20096;-49
2022/03/09 01:20:40;;;;;;;52.47;28.60;;;;;;;;;;5014714;28;20033;-51
2022/03/09 01:23:07;;;;;;;52.33;29.65;;;;;;;;;;5014131;28;20028;-53
2022/03/09 01:25:33;;;;;;;51.67;29.65;;;;;;;;;;5014270;28;20463;-52
2022/03/09 01:27:59;;;;;;;50.65;28.13;;;;;;;;;;5014619;28;20030;-54
2022/03/09 01:30:25;;;;;;;57.50;31.13;;;;;;;;;;5014207;28;20032;-55
2022/03/09 01:32:51;;;;;;;58.10;30.30;;;;;;;;;;5014538;28;20025;-55
2022/03/09 01:35:18;;;;;;;56.78;30.42;;;;;;;;;;5014149;28;20021;-52
2022/03/09 01:37:47;;;;;;;54.08;30.05;;;;;;;;;;5013848;28;20081;-54
2022/03/09 01:40:14;;;;;;;57.80;30.85;;;;;;;;;;5014476;28;20022;-54
2022/03/09 01:42:40;;;;;;;62.78;31.45;;;;;;;;;;5014391;28;20053;-53
2022/03/09 01:45:07;;;;;;;53.13;28.83;;;;;;;;;;5013519;28;20020;-54
2022/03/09 01:47:34;;;;;;;52.08;29.15;;;;;;;;;;5014421;28;20053;-51
2022/03/09 01:50:00;;;;;;;49.50;27.70;;;;;;;;;;5014528;28;20022;-52
2022/03/09 01:52:27;;;;;;;47.63;27.27;;;;;;;;;;5014429;28;20026;-50
2022/03/09 01:54:53;;;;;;;52.50;29.00;;;;;;;;;;5014615;28;20018;-52
2022/03/09 01:57:23;;;;;;;53.17;27.70;;;;;;;;;;5016252;28;20053;-51
2022/03/09 01:59:49;;;;;;;50.28;26.67;;;;;;;;;;5015278;28;20030;-48
2022/03/09 02:02:16;;;;;;;48.42;27.35;;;;;;;;;;5014898;28;20546;-52
2022/03/09 02:04:43;;;;;;;50.40;28.92;;;;;;;;;;5014406;28;20034;-50
2022/03/09 02:07:10;;;;;;;60.47;32.25;;;;;;;;;;5015015;28;20052;-53
2022/03/09 02:09:43;;;;;;;53.42;29.85;;;;;;;;;;5013712;28;20072;-50
2022/03/09 02:12:13;;;;;;;57.05;30.27;;;;;;;;;;5013851;28;20018;-48
2022/03/09 02:14:43;;;;;;;54.88;29.98;;;;;;;;;;5014305;28;20022;-49
2022/03/09 02:17:12;;;;;;;58.63;30.20;;;;;;;;;;5013959;28;20026;-50
2022/03/09 02:19:38;;;;;;;52.28;28.23;;;;;;;;;;5013707;28;20085;-48
2022/03/09 02:22:11;;;;;;;58.65;28.67;;;;;;;;;;5013610;28;20030;-49
2022/03/09 02:24:37;;;;;;;51.55;27.92;;;;;;;;;;5013547;28;20033;-53
2022/03/09 02:27:03;;;;;;;51.00;28.25;;;;;;;;;;5013265;28;20378;-52
2022/03/09 02:29:29;;;;;;;53.63;27.23;;;;;;;;;;5013798;28;20087;-52
2022/03/09 02:31:56;;;;;;;50.92;27.17;;;;;;;;;;5014039;28;20053;-53
2022/03/09 02:34:22;;;;;;;49.65;26.40;;;;;;;;;;5011948;28;20024;-52
2022/03/09 02:36:48;;;;;;;47.75;23.75;;;;;;;;;;5013602;28;20022;-54
2022/03/09 02:39:14;;;;;;;42.92;23.08;;;;;;;;;;5014011;28;20424;-52
2022/03/09 02:41:40;;;;;;;41.88;22.02;;;;;;;;;;5013152;28;20417;-53
2022/03/09 02:44:06;;;;;;;38.33;19.95;;;;;;;;;;5013394;28;20344;-56
2022/03/09 02:46:33;;;;;;;38.75;20.25;;;;;;;;;;5013500;28;20399;-51
2022/03/09 02:48:59;;;;;;;32.20;18.67;;;;;;;;;;5013330;28;20026;-53
2022/03/09 02:51:25;;;;;;;34.80;18.25;;;;;;;;;;5013337;28;20026;-53
2022/03/09 02:53:51;;;;;;;31.38;17.42;;;;;;;;;;5013618;28;20478;-52
2022/03/09 02:56:17;;;;;;;35.33;18.35;;;;;;;;;;5013243;28;20402;-49
2022/03/09 02:58:46;;;;;;;36.25;18.77;;;;;;;;;;5017101;28;20032;-48
2022/03/09 03:01:13;;;;;;;40.15;19.02;;;;;;;;;;5017487;28;20029;-52
2022/03/09 03:03:43;;;;;;;35.15;18.80;;;;;;;;;;5017011;28;20018;-54
2022/03/09 03:06:10;;;;;;;35.70;18.10;;;;;;;;;;5017041;28;20037;-50
2022/03/09 03:08:38;;;;;;;39.03;20.00;;;;;;;;;;5016952;28;20036;-52
2022/03/09 03:11:05;;;;;;;35.00;18.95;;;;;;;;;;5016848;28;20463;-53
2022/03/09 03:13:31;;;;;;;39.13;20.05;;;;;;;;;;5016924;28;20117;-50
2022/03/09 03:15:57;;;;;;;38.65;19.23;;;;;;;;;;5016945;28;20029;-54
2022/03/09 03:18:23;;;;;;;37.40;18.52;;;;;;;;;;5016734;28;20044;-51
2022/03/09 03:20:54;;;;;;;40.92;18.80;;;;;;;;;;5016831;28;20049;-48
2022/03/09 03:23:21;;;;;;;81.07;28.98;;;;;;;;;;5016548;28;20025;-53
2022/03/09 03:25:47;;;;;;;49.90;22.63;;;;;;;;;;5016578;28;20061;-54
2022/03/09 03:28:14;;;;;;;46.15;20.33;;;;;;;;;;5016786;28;20061;-53
2022/03/09 03:30:40;;;;;;;38.85;19.85;;;;;;;;;;5016533;28;20386;-52
2022/03/09 03:33:06;;;;;;;41.33;20.17;;;;;;;;;;5016451;28;20382;-52
2022/03/09 03:35:32;;;;;;;37.65;19.33;;;;;;;;;;5016129;28;20459;-54
2022/03/09 03:37:58;;;;;;;39.85;20.85;;;;;;;;;;5016509;28;20030;-53
2022/03/09 03:40:24;;;;;;;41.55;20.67;;;;;;;;;;5016624;28;20021;-51
2022/03/09 03:42:51;;;;;;;39.50;20.30;;;;;;;;;;5016348;28;20492;-50
2022/03/09 03:45:17;;;;;;;43.65;21.70;;;;;;;;;;5016004;28;20030;-53
2022/03/09 03:47:43;;;;;;;39.78;20.27;;;;;;;;;;5016303;28;20030;-52
2022/03/09 03:50:09;;;;;;;54.45;23.55;;;;;;;;;;5016377;28;20025;-51
2022/03/09 03:52:35;;;;;;;46.78;22.55;;;;;;;;;;5016641;28;20021;-52
2022/03/09 03:55:01;;;;;;;39.78;20.60;;;;;;;;;;5014999;28;20459;-50
2022/03/09 03:57:28;;;;;;;42.50;21.23;;;;;;;;;;5015571;28;20063;-53
2022/03/09 03:59:54;;;;;;;35.95;19.52;;;;;;;;;;5016465;28;20048;-52
2022/03/09 04:02:20;;;;;;;75.15;32.50;;;;;;;;;;5015830;28;20096;-53
2022/03/09 04:04:46;;;;;;;67.40;29.98;;;;;;;;;;5015580;28;20528;-55
2022/03/09 04:07:12;;;;;;;59.55;27.30;;;;;;;;;;5015968;28;20029;-52
2022/03/09 04:09:38;;;;;;;40.88;20.73;;;;;;;;;;5016265;28;20073;-53
2022/03/09 04:12:05;;;;;;;39.83;19.17;;;;;;;;;;5015715;28;20025;-53
2022/03/09 04:14:31;;;;;;;33.63;17.30;;;;;;;;;;5016153;28;20114;-50
2022/03/09 04:16:58;;;;;;;33.00;16.80;;;;;;;;;;5015600;28;20037;-49
2022/03/09 04:19:24;;;;;;;34.50;18.15;;;;;;;;;;5015446;28;20022;-53
2022/03/09 04:21:50;;;;;;;52.58;23.45;;;;;;;;;;5015796;28;20022;-52
2022/03/09 04:24:16;;;;;;;39.88;19.27;;;;;;;;;;5016035;28;20402;-51
2022/03/09 04:26:42;;;;;;;39.97;18.80;;;;;;;;;;5015286;28;20108;-51
2022/03/09 04:29:08;;;;;;;37.83;18.58;;;;;;;;;;5015652;28;20028;-52
2022/03/09 04:31:35;;;;;;;35.72;17.92;;;;;;;;;;5015184;28;20029;-56
2022/03/09 04:34:01;;;;;;;33.22;16.75;;;;;;;;;;5015290;28;20022;-54
2022/03/09 04:36:28;;;;;;;31.10;15.85;;;;;;;;;;5014216;28;20040;-54
2022/03/09 04:38:54;;;;;;;31.23;17.15;;;;;;;;;;5015119;28;20033;-53
2022/03/09 04:41:20;;;;;;;35.15;17.75;;;;;;;;;;5015175;28;20065;-53
2022/03/09 04:43:46;;;;;;;33.17;17.83;;;;;;;;;;5015457;28;20029;-51
2022/03/09 04:46:12;;;;;;;35.80;18.15;;;;;;;;;;5014886;28;20113;-50
2022/03/09 04:48:39;;;;;;;36.42;19.88;;;;;;;;;;5014962;28;20534;-51
2022/03/09 04:51:05;;;;;;;36.50;19.77;;;;;;;;;;5015219;28;20573;-52
2022/03/09 04:53:31;;;;;;;35.95;19.17;;;;;;;;;;5014765;28;20026;-53
2022/03/09 04:55:58;;;;;;;34.08;18.58;;;;;;;;;;5015021;28;20057;-55
2022/03/09 04:58:24;;;;;;;32.92;18.20;;;;;;;;;;5014652;28;20059;-49
2022/03/09 05:00:51;;;;;;;34.38;17.88;;;;;;;;;;5014171;28;20025;-52
2022/03/09 05:03:17;;;;;;;33.22;18.27;;;;;;;;;;5013072;28;20463;-53
2022/03/09 05:05:43;;;;;;;35.53;18.98;;;;;;;;;;5013017;28;20026;-53
2022/03/09 05:08:09;;;;;;;35.38;18.05;;;;;;;;;;5012699;28;20029;-49
2022/03/09 05:10:36;;;;;;;30.48;17.55;;;;;;;;;;5013576;28;20033;-49
2022/03/09 05:13:02;;;;;;;35.85;18.38;;;;;;;;;;5013275;28;20038;-48
2022/03/09 05:15:28;;;;;;;35.67;18.50;;;;;;;;;;5013613;28;20467;-52
2022/03/09 05:17:55;;;;;;;35.90;18.60;;;;;;;;;;5014425;28;20022;-49
2022/03/09 05:20:21;;;;;;;35.75;18.38;;;;;;;;;;5013906;28;20025;-51
2022/03/09 05:22:48;;;;;;;31.92;16.70;;;;;;;;;;5014310;28;20087;-50
2022/03/09 05:25:14;;;;;;;28.00;14.63;;;;;;;;;;5014104;28;20068;-52
2022/03/09 05:27:40;;;;;;;29.08;14.38;;;;;;;;;;5013951;28;20414;-49
2022/03/09 05:30:08;;;;;;;33.30;14.23;;;;;;;;;;5014113;28;20164;-46
2022/03/09 05:32:34;;;;;;;33.58;16.90;;;;;;;;;;5015072;28;20455;-49
2022/03/09 05:35:00;;;;;;;34.40;16.65;;;;;;;;;;5014397;28;20025;-49
2022/03/09 05:37:28;;;;;;;37.83;17.70;;;;;;;;;;5014214;28;20026;-48
2022/03/09 05:39:54;;;;;;;35.97;18.52;;;;;;;;;;5013930;28;20022;-49
2022/03/09 05:42:21;;;;;;;36.03;19.63;;;;;;;;;;5014017;28;20069;-52
2022/03/09 05:44:47;;;;;;;40.42;19.42;;;;;;;;;;5014122;28;20026;-52
2022/03/09 05:47:13;;;;;;;34.65;17.48;;;;;;;;;;5011080;28;20037;-53
2022/03/09 05:49:39;;;;;;;33.00;17.95;;;;;;;;;;4994256;28;20460;-57
2022/03/09 05:52:05;;;;;;;35.25;19.60;;;;;;;;;;4994616;28;20030;-53
2022/03/09 05:54:32;;;;;;;38.50;20.48;;;;;;;;;;4994781;28;20029;-52
2022/03/09 05:56:58;;;;;;;39.45;20.95;;;;;;;;;;4993884;28;20033;-51
2022/03/09 05:59:24;;;;;;;38.70;19.25;;;;;;;;;;4994382;28;20058;-49
2022/03/09 06:01:50;;;;;;;34.03;19.52;;;;;;;;;;4994005;28;20025;-52
2022/03/09 06:04:16;;;;;;;44.17;22.42;;;;;;;;;;4994067;28;20018;-56
2022/03/09 06:06:42;;;;;;;39.42;20.38;;;;;;;;;;4993909;28;20027;-51
2022/03/09 06:09:09;;;;;;;42.75;20.02;;;;;;;;;;4994203;28;20030;-54
2022/03/09 06:11:35;;;;;;;57.42;25.33;;;;;;;;;;4993903;28;20105;-51
2022/03/09 06:14:01;;;;;;;31.80;17.55;;;;;;;;;;4992946;28;20379;-55
2022/03/09 06:16:27;;;;;;;36.15;18.10;;;;;;;;;;4993778;28;20030;-53
2022/03/09 06:18:53;;;;;;;54.65;25.05;;;;;;;;;;4994042;28;20040;-53
2022/03/09 06:21:19;;;;;;;30.95;17.50;;;;;;;;;;4993060;28;20019;-52
2022/03/09 06:23:46;;;;;;;35.22;18.08;;;;;;;;;;4993664;28;20022;-53
2022/03/09 06:26:12;;;;;;;30.48;15.73;;;;;;;;;;4993851;28;20036;-54
2022/03/09 06:28:38;;;;;;;27.48;14.27;;;;;;;;;;4993883;28;20022;-55
2022/03/09 06:31:04;;;;;;;27.50;14.88;;;;;;;;;;4993763;28;20023;-56
2022/03/09 06:33:31;;;;;;;32.63;17.40;;;;;;;;;;4997629;28;20419;-55
2022/03/09 06:35:57;;;;;;;26.60;14.15;;;;;;;;;;4998196;28;20061;-53
2022/03/09 06:38:23;;;;;;;28.88;14.52;;;;;;;;;;4997436;28;20068;-54
2022/03/09 06:40:49;;;;;;;27.75;15.13;;;;;;;;;;4997809;28;20025;-54
2022/03/09 06:43:15;;;;;;;25.77;14.55;;;;;;;;;;4998208;28;20125;-56
2022/03/09 06:45:41;;;;;;;29.65;16.33;;;;;;;;;;4997351;28;20031;-55
2022/03/09 06:48:08;;;;;;;26.73;15.95;;;;;;;;;;4998194;28;20038;-53
2022/03/09 06:50:34;;;;;;;28.90;16.08;;;;;;;;;;4998147;28;20433;-53
2022/03/09 06:53:01;;;;;;;30.88;15.35;;;;;;;;;;4997792;28;20030;-53
2022/03/09 06:55:27;;;;;;;34.17;16.27;;;;;;;;;;4995876;28;20069;-53
2022/03/09 06:57:53;;;;;;;27.33;14.52;;;;;;;;;;4997271;28;20027;-55
2022/03/09 07:00:20;;;;;;;43.75;20.73;;;;;;;;;;4997548;28;20026;-52
2022/03/09 07:02:46;;;;;;;30.60;16.55;;;;;;;;;;4997038;28;20026;-56
2022/03/09 07:05:12;;;;;;;27.65;15.25;;;;;;;;;;4996803;28;20089;-56
2022/03/09 07:07:40;;;;;;;29.13;15.15;;;;;;;;;;4996577;28;20035;-51
2022/03/09 07:10:10;;;;;;;28.27;15.20;;;;;;;;;;4996963;28;20031;-53
2022/03/09 07:12:36;;;;;;;24.75;14.20;;;;;;;;;;4996525;28;20021;-55
2022/03/09 07:15:03;;;;;;;26.73;13.30;;;;;;;;;;4997187;28;20052;-52
2022/03/09 07:17:29;;;;;;;25.90;12.80;;;;;;;;;;4997260;28;20030;-55
2022/03/09 07:19:55;;;;;;;25.65;13.68;;;;;;;;;;4997359;28;20037;-54
2022/03/09 07:22:22;;;;;;;31.75;15.35;;;;;;;;;;4997426;28;20049;-55
2022/03/09 07:24:48;;;;;;;30.23;15.63;;;;;;;;;;4997120;28;20018;-54
2022/03/09 07:27:15;;;;;;;36.20;16.17;;;;;;;;;;4996906;28;20419;-57
2022/03/09 07:29:41;;;;;;;32.20;16.55;;;;;;;;;;4997746;28;20030;-54
2022/03/09 07:32:08;;;;;;;35.72;16.00;;;;;;;;;;4997592;28;20022;-51
2022/03/09 07:34:35;;;;;;;26.90;15.30;;;;;;;;;;4997925;28;20027;-52
2022/03/09 07:37:01;;;;;;;36.22;16.75;;;;;;;;;;4997414;28;20088;-55
2022/03/09 07:39:28;;;;;;;27.63;16.42;;;;;;;;;;4997125;28;20030;-53
2022/03/09 07:41:55;;;;;;;25.98;15.27;;;;;;;;;;4996190;28;20046;-52
2022/03/09 07:44:22;;;;;;;31.75;15.73;;;;;;;;;;4994836;28;20033;-55
2022/03/09 07:46:48;;;;;;;33.05;16.00;;;;;;;;;;4995108;28;20076;-52
2022/03/09 07:49:15;;;;;;;27.48;14.05;;;;;;;;;;4994625;28;20081;-50
2022/03/09 07:51:41;;;;;;;26.85;13.65;;;;;;;;;;4995609;28;20072;-51
2022/03/09 07:54:07;;;;;;;25.30;13.93;;;;;;;;;;4995918;28;20022;-53
2022/03/09 07:56:35;;;;;;;24.95;14.15;;;;;;;;;;4995296;28;20088;-53
2022/03/09 07:59:01;;;;;;;24.95;14.10;;;;;;;;;;4995476;28;20030;-51
2022/03/09 08:01:27;;;;;;;28.63;14.55;;;;;;;;;;4995114;28;20034;-57
2022/03/09 08:03:54;;;;;;;34.22;13.73;;;;;;;;;;4995320;28;20027;-52
2022/03/09 08:06:20;;;;;;;28.35;14.23;;;;;;;;;;4995921;28;20041;-54
2022/03/09 08:08:47;;;;;;;27.90;13.70;;;;;;;;;;4995312;28;20068;-49
2022/03/09 08:11:13;;;;;;;24.90;14.13;;;;;;;;;;4995430;28;20023;-50
2022/03/09 08:13:40;;;;;;;28.45;13.85;;;;;;;;;;4993982;28;20368;-56
2022/03/09 08:16:06;;;;;;;28.67;15.18;;;;;;;;;;4994531;28;20026;-54
2022/03/09 08:18:33;;;;;;;24.42;13.38;;;;;;;;;;4995583;28;20023;-51
2022/03/09 08:20:59;;;;;;;24.80;13.32;;;;;;;;;;4995516;28;20019;-49
2022/03/09 08:23:25;;;;;;;24.75;13.82;;;;;;;;;;4993248;28;20034;-50
2022/03/09 08:25:52;;;;;;;27.10;15.20;;;;;;;;;;4994421;28;20030;-55
2022/03/09 08:28:18;;;;;;;26.63;14.07;;;;;;;;;;4995263;28;20034;-51
2022/03/09 08:30:44;;;;;;;25.42;13.88;;;;;;;;;;4994934;28;20027;-54
2022/03/09 08:33:10;;;;;;;24.38;14.13;;;;;;;;;;4994913;28;20027;-51
2022/03/09 08:35:37;;;;;;;25.73;14.30;;;;;;;;;;4993559;28;20027;-55
2022/03/09 08:38:04;;;;;;;25.85;14.07;;;;;;;;;;4994360;28;20085;-53
2022/03/09 08:40:30;;;;;;;32.05;15.73;;;;;;;;;;4991582;28;20027;-52
2022/03/09 08:42:56;;;;;;;31.40;15.27;;;;;;;;;;4949962;28;1234388;-56
2022/03/09 08:45:23;;;;;;;29.17;14.63;;;;;;;;;;4994146;28;20323;-55
2022/03/09 08:47:49;;;;;;;29.38;14.60;;;;;;;;;;4994956;28;20026;-52
2022/03/09 08:50:16;;;;;;;24.52;14.63;;;;;;;;;;4995042;28;20030;-55
2022/03/09 08:52:42;;;;;;;25.55;15.30;;;;;;;;;;4994360;28;20357;-53
2022/03/09 08:55:08;;;;;;;28.75;15.88;;;;;;;;;;4994602;28;20456;-52
2022/03/09 08:57:34;;;;;;;24.60;14.57;;;;;;;;;;4995608;28;20077;-54
2022/03/09 09:00:04;;;;;;;32.17;16.23;;;;;;;;;;4995494;28;20023;-51
2022/03/09 09:02:31;;;;;;;29.38;16.88;;;;;;;;;;4995227;28;20022;-54
2022/03/09 09:04:57;;;;;;;24.52;14.52;;;;;;;;;;4995243;28;20038;-51
2022/03/09 09:07:24;;;;;;;28.92;15.40;;;;;;;;;;4995139;28;20033;-53
2022/03/09 09:09:50;;;;;;;29.42;16.27;;;;;;;;;;4995136;28;20034;-55
2022/03/09 09:12:16;;;;;;;37.55;16.98;;;;;;;;;;4994682;28;20018;-54
2022/03/09 09:14:43;;;;;;;22.65;12.32;;;;;;;;;;4995007;28;20033;-51
2022/03/09 09:17:09;;;;;;;20.15;11.35;;;;;;;;;;4995072;28;20516;-56
2022/03/09 09:19:35;;;;;;;23.02;12.65;;;;;;;;;;4994888;28;20106;-53
2022/03/09 09:22:03;;;;;;;20.55;11.77;;;;;;;;;;4994965;28;20026;-52
2022/03/09 09:24:29;;;;;;;21.33;11.65;;;;;;;;;;4994975;28;20041;-52
2022/03/09 09:26:56;;;;;;;19.35;10.15;;;;;;;;;;4994541;28;20034;-54
2022/03/09 09:29:22;;;;;;;22.65;13.00;;;;;;;;;;4994696;28;20467;-54
2022/03/09 09:31:48;;;;;;;18.42;11.43;;;;;;;;;;4994792;28;20079;-51
2022/03/09 09:34:15;;;;;;;18.30;10.35;;;;;;;;;;4994242;28;20026;-50
2022/03/09 09:36:45;;;;;;;17.38;10.30;;;;;;;;;;4995273;28;20077;-52
2022/03/09 09:39:13;;;;;;;19.35;10.68;;;;;;;;;;4994432;28;20027;-51
2022/03/09 09:41:40;;;;;;;22.10;12.27;;;;;;;;;;4994505;28;20054;-52
2022/03/09 09:44:07;;;;;;;17.35;9.25;;;;;;;;;;4994729;28;20026;-52
2022/03/09 09:46:35;;;;;;;21.88;10.45;;;;;;;;;;4993897;28;20422;-55
2022/03/09 09:49:01;;;;;;;19.55;9.13;;;;;;;;;;4994657;28;20101;-52
2022/03/09 09:51:28;;;;;;;21.00;9.52;;;;;;;;;;4994786;28;20022;-56
2022/03/09 09:53:54;;;;;;;18.10;9.77;;;;;;;;;;4993959;28;20018;-52
2022/03/09 09:56:21;;;;;;;20.40;10.82;;;;;;;;;;4994142;28;20117;-52
2022/03/09 09:58:47;;;;;;;15.50;9.63;;;;;;;;;;4994593;28;20080;-48
2022/03/09 10:01:13;;;;;;;14.15;9.00;;;;;;;;;;4993776;28;20023;-53
2022/03/09 10:03:39;;;;;;;19.52;9.60;;;;;;;;;;4994455;28;20101;-52
2022/03/09 10:06:06;;;;;;;17.10;9.90;;;;;;;;;;4994170;28;20482;-49
2022/03/09 10:08:32;;;;;;;15.85;8.90;;;;;;;;;;4994106;28;20026;-52
2022/03/09 10:11:02;;;;;;;18.55;8.60;;;;;;;;;;4993921;28;20030;-48
2022/03/09 10:13:30;;;;;;;19.55;8.90;;;;;;;;;;4994306;28;20098;-51
2022/03/09 10:16:12;;;;;;;16.15;9.80;;;;;;;;;;4993913;28;20035;-50
2022/03/09 10:18:38;;;;;;;16.50;8.40;;;;;;;;;;4994259;28;20073;-53
2022/03/09 10:21:08;;;;;;;15.43;8.43;;;;;;;;;;4994695;28;20358;-53
2022/03/09 10:23:50;;;;;;;18.33;9.30;;;;;;;;;;4994103;28;20031;-51
2022/03/09 10:26:17;;;;;;;15.57;9.50;;;;;;;;;;4994263;28;20375;-49
2022/03/09 10:28:54;;;;;;;15.45;9.45;;;;;;;;;;4993770;28;20030;-55
2022/03/09 10:31:34;;;;;;;14.95;8.30;;;;;;;;;;4994392;28;20371;-52
2022/03/09 10:34:04;;;;;;;18.75;10.23;;;;;;;;;;4992908;28;20031;-55
2022/03/09 10:36:30;;;;;;;23.10;11.60;;;;;;;;;;4993796;28;20026;-57
2022/03/09 10:39:09;;;;;;;19.45;10.65;;;;;;;;;;4993664;28;20045;-54
2022/03/09 10:41:35;;;;;;;17.30;9.82;;;;;;;;;;4993962;28;20154;-52
2022/03/09 10:44:02;;;;;;;21.20;10.05;;;;;;;;;;4993635;28;20097;-51
2022/03/09 10:46:41;;;;;;;20.10;10.32;;;;;;;;;;4994236;28;20034;-51
2022/03/09 10:49:08;;;;;;;14.27;8.77;;;;;;;;;;4993707;28;20034;-52
2022/03/09 10:51:35;;;;;;;17.67;9.40;;;;;;;;;;4993564;28;20030;-54
2022/03/09 10:54:03;;;;;;;17.85;9.52;;;;;;;;;;4994373;28;20023;-52
2022/03/09 10:56:30;;;;;;;15.45;9.55;;;;;;;;;;4993511;28;20069;-54
2022/03/09 10:58:56;;;;;;;19.63;11.00;;;;;;;;;;4993565;28;20029;-54
2022/03/09 11:01:23;;;;;;;19.70;11.57;;;;;;;;;;4993758;28;20027;-54
2022/03/09 11:03:50;;;;;;;17.13;10.30;;;;;;;;;;4992358;28;20073;-49
2022/03/09 11:06:17;;;;;;;18.45;10.77;;;;;;;;;;4993761;28;20031;-57
2022/03/09 11:08:43;;;;;;;19.35;11.25;;;;;;;;;;4994041;28;20030;-53
2022/03/09 11:11:10;;;;;;;20.17;11.82;;;;;;;;;;4993166;28;20049;-54
2022/03/09 11:13:37;;;;;;;20.27;11.23;;;;;;;;;;4993795;28;20045;-56
2022/03/09 11:16:03;;;;;;;20.23;11.43;;;;;;;;;;4993945;28;20030;-59
2022/03/09 11:18:31;;;;;;;20.75;11.75;;;;;;;;;;4994935;28;20124;-56
2022/03/09 11:20:58;;;;;;;19.13;11.13;;;;;;;;;;4997279;28;20029;-56
2022/03/09 11:23:25;;;;;;;17.58;10.18;;;;;;;;;;4997027;28;20471;-55
2022/03/09 11:25:57;;;;;;;25.13;11.55;;;;;;;;;;4996785;28;20027;-53
2022/03/09 11:28:24;;;;;;;20.08;11.40;;;;;;;;;;4997434;28;20030;-54
2022/03/09 11:30:54;;;;;;;19.92;11.23;;;;;;;;;;4997355;28;20026;-53
2022/03/09 11:33:39;;;;;;;21.95;11.63;;;;;;;;;;4996744;28;20030;-56
2022/03/09 11:36:27;;;;;;;24.65;12.07;;;;;;;;;;4996781;28;20052;-56
2022/03/09 11:38:54;;;;;;;19.33;11.45;;;;;;;;;;4997268;28;20117;-54
2022/03/09 11:41:28;;;;;;;20.13;11.57;;;;;;;;;;4996781;28;20173;-57
2022/03/09 11:43:55;;;;;;;17.92;10.98;;;;;;;;;;4996620;28;20072;-53
2022/03/09 11:46:21;;;;;;;22.75;11.80;;;;;;;;;;4996590;28;20065;-54
2022/03/09 11:48:51;;;;;;;19.85;11.38;;;;;;;;;;4997048;28;20491;-52
2022/03/09 11:51:17;;;;;;;28.13;14.18;;;;;;;;;;4996722;28;20022;-53
2022/03/09 11:53:51;;;;;;;23.35;12.88;;;;;;;;;;4996446;28;20022;-55
2022/03/09 11:56:24;;;;;;;22.75;13.00;;;;;;;;;;4996349;28;20057;-54
2022/03/09 11:59:08;;;;;;;24.60;13.30;;;;;;;;;;4996577;28;20018;-53
2022/03/09 12:01:53;;;;;;;23.60;13.43;;;;;;;;;;4995953;28;20060;-52
2022/03/09 12:04:37;;;;;;;30.30;16.38;;;;;;;;;;4996589;28;20056;-53
2022/03/09 12:07:03;;;;;;;27.67;14.80;;;;;;;;;;4996256;28;20085;-52
2022/03/09 12:09:48;;;;;;;26.08;15.52;;;;;;;;;;4996658;28;20026;-52
2022/03/09 12:12:14;;;;;;;27.60;15.88;;;;;;;;;;4996582;28;20027;-54
2022/03/09 12:14:59;;;;;;;26.23;14.85;;;;;;;;;;4996615;28;20037;-54
2022/03/09 12:17:29;;;;;;;27.17;15.38;;;;;;;;;;4997460;28;20117;-54
2022/03/09 12:20:14;;;;;;;29.70;14.95;;;;;;;;;;4996846;28;20030;-56
2022/03/09 12:22:56;;;;;;;28.73;16.27;;;;;;;;;;4995851;28;20463;-51
2022/03/09 12:25:41;;;;;;;34.03;18.15;;;;;;;;;;4995723;28;20054;-55
2022/03/09 12:28:27;;;;;;;29.92;17.52;;;;;;;;;;4995777;28;20026;-52
2022/03/09 12:30:56;;;;;;;31.38;16.05;;;;;;;;;;4996592;28;20030;-53
2022/03/09 12:33:28;;;;;;;29.15;15.68;;;;;;;;;;4996831;28;20022;-53
2022/03/09 12:36:03;;;;;;;28.60;15.93;;;;;;;;;;4995689;28;20035;-56
2022/03/09 12:38:36;;;;;;;40.50;20.30;;;;;;;;;;4996128;28;20030;-51
2022/03/09 12:41:02;;;;;;;36.00;17.75;;;;;;;;;;4995297;28;20471;-53
2022/03/09 12:43:45;;;;;;;27.27;15.63;;;;;;;;;;4994236;28;20026;-52
2022/03/09 12:46:11;;;;;;;28.80;15.70;;;;;;;;;;4995853;28;20080;-51
2022/03/09 12:48:39;;;;;;;30.25;17.25;;;;;;;;;;4995372;28;20041;-54
2022/03/09 12:51:05;;;;;;;30.00;15.75;;;;;;;;;;4995646;28;20022;-56
2022/03/09 12:53:32;;;;;;;27.17;14.88;;;;;;;;;;4995356;28;20026;-56
2022/03/09 12:55:58;;;;;;;23.85;13.30;;;;;;;;;;4994941;28;20066;-53
2022/03/09 12:58:25;;;;;;;27.33;15.68;;;;;;;;;;4995798;28;20026;-56
2022/03/09 13:01:04;;;;;;;28.13;16.95;;;;;;;;;;4995460;28;20023;-53
2022/03/09 13:03:30;;;;;;;27.05;16.27;;;;;;;;;;4995236;28;20029;-55
2022/03/09 13:05:56;;;;;;;30.58;17.10;;;;;;;;;;4994983;28;20022;-54
2022/03/09 13:08:32;;;;;;;34.97;18.58;;;;;;;;;;4995571;28;20022;-52
2022/03/09 13:10:59;;;;;;;33.45;19.70;;;;;;;;;;4994284;28;20345;-55
2022/03/09 13:13:29;;;;;;;38.20;20.90;;;;;;;;;;4995001;28;20472;-55
2022/03/09 13:16:03;;;;;;;37.03;22.27;;;;;;;;;;4995365;28;20026;-58
2022/03/09 13:18:30;;;;;;;40.72;22.10;;;;;;;;;;4995016;28;20252;-55
2022/03/09 13:20:57;;;;;;;41.17;22.75;;;;;;;;;;4995117;28;20065;-54
2022/03/09 13:23:25;;;;;;;37.33;19.88;;;;;;;;;;4994794;28;20056;-52
2022/03/09 13:25:51;;;;;;;36.35;21.02;;;;;;;;;;4994967;28;20498;-54
2022/03/09 13:28:27;;;;;;;49.67;25.25;;;;;;;;;;4994999;28;20034;-54
2022/03/09 13:30:54;;;;;;;45.35;25.33;;;;;;;;;;4994686;28;20053;-54
2022/03/09 13:33:22;;;;;;;43.40;24.73;;;;;;;;;;4994971;28;20352;-57
2022/03/09 13:35:49;;;;;;;44.92;24.23;;;;;;;;;;4994846;28;20471;-56
2022/03/09 13:38:20;;;;;;;48.00;26.73;;;;;;;;;;4994528;28;20547;-53
2022/03/09 13:40:46;;;;;;;40.53;22.48;;;;;;;;;;4994137;28;20053;-55
2022/03/09 13:43:12;;;;;;;42.85;24.00;;;;;;;;;;4994650;28;20537;-55
2022/03/09 13:45:40;;;;;;;59.15;33.15;;;;;;;;;;4994509;28;20053;-55
2022/03/09 13:48:08;;;;;;;47.85;26.00;;;;;;;;;;4995276;28;20034;-55
2022/03/09 13:50:48;;;;;;;43.33;23.90;;;;;;;;;;4994904;28;20027;-50
2022/03/09 13:53:15;;;;;;;43.38;24.65;;;;;;;;;;4994815;28;20030;-52
2022/03/09 13:55:52;;;;;;;41.25;24.48;;;;;;;;;;4994958;28;20540;-51
2022/03/09 13:58:19;;;;;;;46.10;25.58;;;;;;;;;;4994763;28;20038;-53
2022/03/09 14:00:46;;;;;;;39.28;22.83;;;;;;;;;;4994548;28;20488;-49
2022/03/09 14:03:16;;;;;;;44.65;24.33;;;;;;;;;;4994518;28;20078;-52
2022/03/09 14:05:44;;;;;;;47.88;27.48;;;;;;;;;;4993722;28;20038;-49
2022/03/09 14:08:12;;;;;;;48.60;28.20;;;;;;;;;;4994102;28;20037;-54
2022/03/09 14:10:40;;;;;;;49.40;26.77;;;;;;;;;;4994375;28;20026;-50
2022/03/09 14:13:11;;;;;;;48.85;27.73;;;;;;;;;;4993738;28;20444;-55
2022/03/09 14:15:37;;;;;;;46.97;26.02;;;;;;;;;;4993960;28;20030;-52
2022/03/09 14:18:04;;;;;;;44.63;25.77;;;;;;;;;;4994235;28;20034;-53
2022/03/09 14:20:30;;;;;;;49.15;26.45;;;;;;;;;;4993590;28;20475;-51